createdAt,value
2019-03-25T00:03:29.159Z,22.48
2019-03-25T00:05:57.579Z,21.23
2019-03-25T00:08:25.698Z,22.15
2019-03-25T00:10:53.774Z,22.13
2019-03-25T00:13:22.184Z,21.17
2019-03-25T00:15:50.694Z,22.10
2019-03-25T00:18:19.152Z,21.75
2019-03-25T00:20:47.569Z,21.52
2019-03-25T00:23:15.977Z,21.70
2019-03-25T00:25:44.416Z,21.50
2019-03-25T00:28:13.880Z,22.30
2019-03-25T00:30:42.528Z,23.02
2019-03-25T00:33:10.954Z,23.35
2019-03-25T00:35:39.361Z,21.17
2019-03-25T00:38:07.760Z,21.75
2019-03-25T00:40:36.199Z,24.50
2019-03-25T00:43:04.604Z,22.42
2019-03-25T00:45:33.018Z,21.30
2019-03-25T00:48:01.437Z,19.90
2019-03-25T00:50:29.872Z,22.05
2019-03-25T00:52:58.474Z,20.23
2019-03-25T00:55:26.884Z,22.13
2019-03-25T00:57:55.316Z,21.87
2019-03-25T01:00:28.908Z,21.50
2019-03-25T01:02:57.389Z,22.98
2019-03-25T01:05:26.091Z,24.50
2019-03-25T01:07:54.490Z,22.70
2019-03-25T01:10:22.984Z,22.80
2019-03-25T01:12:51.624Z,22.82
2019-03-25T01:15:20.038Z,24.70
2019-03-25T01:17:48.438Z,23.55
2019-03-25T01:20:16.879Z,23.65
2019-03-25T01:22:45.458Z,23.18
2019-03-25T01:25:13.952Z,22.40
2019-03-25T01:30:11.424Z,22.35
2019-03-25T01:32:39.824Z,22.48
2019-03-25T01:35:08.408Z,23.02
2019-03-25T01:37:36.888Z,23.40
2019-03-25T01:40:07.217Z,22.32
2019-03-25T01:42:35.897Z,21.12
2019-03-25T01:45:06.184Z,21.82
2019-03-25T01:47:34.653Z,22.07
2019-03-25T01:50:02.990Z,22.35
2019-03-25T01:52:31.413Z,22.35
2019-03-25T01:54:59.860Z,19.40
2019-03-25T01:57:28.292Z,23.40
2019-03-25T01:59:56.704Z,21.05
2019-03-25T02:02:25.120Z,22.95
2019-03-25T02:05:00.119Z,22.02
2019-03-25T02:07:28.604Z,22.00
2019-03-25T02:09:57.036Z,23.50
2019-03-25T02:12:25.140Z,22.13
2019-03-25T02:14:53.525Z,22.10
2019-03-25T02:17:21.950Z,21.77
2019-03-25T02:19:50.348Z,22.30
2019-03-25T02:22:18.786Z,22.05
2019-03-25T02:24:47.208Z,21.75
2019-03-25T02:27:15.693Z,21.73
2019-03-25T02:29:44.127Z,22.25
2019-03-25T02:32:12.539Z,22.62
2019-03-25T02:34:40.981Z,21.65
2019-03-25T02:37:09.412Z,21.27
2019-03-25T02:39:37.490Z,22.77
2019-03-25T02:42:05.988Z,22.67
2019-03-25T02:44:34.389Z,22.40
2019-03-25T02:47:02.824Z,21.87
2019-03-25T02:49:31.253Z,22.80
2019-03-25T02:51:59.658Z,22.30
2019-03-25T02:54:28.056Z,22.62
2019-03-25T02:56:56.492Z,23.27
2019-03-25T02:59:24.893Z,22.82
2019-03-25T03:01:53.334Z,20.97
2019-03-25T03:04:21.937Z,22.25
2019-03-25T03:06:50.114Z,23.10
2019-03-25T03:09:37.858Z,23.80
2019-03-25T03:12:06.278Z,23.20
2019-03-25T03:14:34.687Z,24.52
2019-03-25T03:17:03.096Z,23.83
2019-03-25T03:19:31.503Z,23.35
2019-03-25T03:21:59.602Z,24.23
2019-03-25T03:24:28.003Z,23.45
2019-03-25T03:26:56.105Z,23.57
2019-03-25T03:29:24.597Z,23.47
2019-03-25T03:31:53.049Z,23.55
2019-03-25T03:34:21.513Z,23.57
2019-03-25T03:36:49.923Z,24.43
2019-03-25T03:39:18.340Z,24.80
2019-03-25T03:41:46.749Z,23.90
2019-03-25T03:44:15.187Z,25.02
2019-03-25T03:46:43.661Z,24.45
2019-03-25T03:49:12.067Z,25.35
2019-03-25T03:51:40.472Z,25.65
2019-03-25T03:54:08.629Z,24.20
2019-03-25T03:56:37.101Z,25.57
2019-03-25T03:59:05.182Z,24.63
2019-03-25T04:01:33.291Z,24.75
2019-03-25T04:04:01.399Z,25.12
2019-03-25T04:06:29.808Z,25.65
2019-03-25T04:08:58.280Z,23.73
2019-03-25T04:11:26.695Z,24.95
2019-03-25T04:13:55.104Z,24.75
2019-03-25T04:16:23.508Z,25.35
2019-03-25T04:18:52.020Z,24.87
2019-03-25T04:21:20.499Z,25.40
2019-03-25T04:23:48.981Z,23.47
2019-03-25T04:26:28.618Z,25.05
2019-03-25T04:28:47.708Z,25.10
2019-03-25T04:31:16.113Z,24.90
2019-03-25T04:33:44.220Z,25.17
2019-03-25T04:38:41.536Z,23.95
2019-03-25T04:41:09.957Z,23.65
2019-03-25T04:43:38.044Z,24.15
2019-03-25T04:46:06.124Z,24.67
2019-03-25T04:48:34.205Z,25.15
2019-03-25T04:51:02.619Z,22.67
2019-03-25T04:53:31.026Z,22.22
2019-03-25T04:55:59.428Z,21.30
2019-03-25T04:58:27.842Z,23.07
2019-03-25T05:00:56.245Z,22.30
2019-03-25T05:03:24.660Z,21.05
2019-03-25T05:05:53.064Z,22.48
2019-03-25T05:08:21.157Z,22.00
2019-03-25T05:10:49.639Z,22.73
2019-03-25T05:13:18.080Z,23.65
2019-03-25T05:15:46.506Z,23.02
2019-03-25T05:18:14.911Z,24.67
2019-03-25T05:20:43.337Z,23.20
2019-03-25T05:23:11.743Z,24.23
2019-03-25T05:25:40.725Z,24.98
2019-03-25T05:28:09.125Z,22.60
2019-03-25T05:33:23.314Z,23.22
2019-03-25T05:35:51.727Z,23.95
2019-03-25T05:38:20.132Z,23.80
2019-03-25T05:40:48.535Z,25.45
2019-03-25T05:43:17.045Z,22.45
2019-03-25T05:45:45.563Z,24.75
2019-03-25T05:48:13.959Z,23.00
2019-03-25T05:50:42.076Z,22.85
2019-03-25T05:53:10.188Z,23.42
2019-03-25T05:55:40.820Z,22.48
2019-03-25T05:58:08.476Z,21.65
2019-03-25T06:00:38.617Z,21.90
2019-03-25T06:03:07.122Z,20.85
2019-03-25T06:05:35.534Z,20.50
2019-03-25T06:08:04.025Z,20.10
2019-03-25T06:10:32.461Z,19.42
2019-03-25T06:13:00.889Z,20.30
2019-03-25T06:15:29.320Z,18.27
2019-03-25T06:17:57.733Z,18.25
2019-03-25T06:20:26.140Z,16.48
2019-03-25T06:22:56.588Z,16.25
2019-03-25T06:25:25.009Z,15.58
2019-03-25T06:27:53.433Z,16.40
2019-03-25T06:30:22.041Z,17.27
2019-03-25T06:32:50.466Z,16.55
2019-03-25T06:35:18.928Z,16.97
2019-03-25T06:37:47.392Z,16.90
2019-03-25T06:40:16.225Z,17.05
2019-03-25T06:42:44.699Z,16.70
2019-03-25T06:45:12.862Z,15.15
2019-03-25T06:47:41.266Z,15.40
2019-03-25T06:50:09.753Z,14.18
2019-03-25T06:52:38.151Z,12.88
2019-03-25T06:55:07.628Z,12.33
2019-03-25T06:57:38.481Z,11.12
2019-03-25T07:00:10.325Z,9.35
2019-03-25T07:02:39.014Z,9.18
2019-03-25T07:05:08.580Z,9.43
2019-03-25T07:07:37.003Z,9.23
2019-03-25T07:10:06.949Z,8.53
2019-03-25T07:12:36.660Z,9.90
2019-03-25T07:15:07.589Z,8.98
2019-03-25T07:17:35.985Z,8.80
2019-03-25T07:20:09.452Z,7.97
2019-03-25T07:25:19.416Z,8.35
2019-03-25T07:27:47.572Z,8.85
2019-03-25T07:30:15.655Z,8.15
2019-03-25T07:32:43.732Z,9.08
2019-03-25T07:35:12.414Z,8.33
2019-03-25T07:37:40.824Z,9.80
2019-03-25T07:40:09.748Z,8.75
2019-03-25T07:42:38.188Z,8.83
2019-03-25T07:45:07.968Z,8.65
2019-03-25T07:47:36.396Z,8.78
2019-03-25T07:50:06.725Z,9.35
2019-03-25T07:52:35.160Z,8.23
2019-03-25T07:55:04.513Z,7.90
2019-03-25T07:57:32.660Z,8.00
2019-03-25T08:00:12.909Z,8.25
2019-03-25T08:02:31.199Z,8.65
2019-03-25T08:04:59.596Z,7.90
2019-03-25T08:07:28.040Z,8.43
2019-03-25T08:09:56.424Z,7.33
2019-03-25T08:12:24.860Z,8.20
2019-03-25T08:14:53.245Z,7.80
2019-03-25T08:17:21.856Z,6.72
2019-03-25T08:19:50.245Z,7.03
2019-03-25T08:22:18.701Z,7.53
2019-03-25T08:24:46.780Z,6.80
2019-03-25T08:27:15.242Z,6.67
2019-03-25T08:30:02.648Z,6.65
2019-03-25T08:32:31.080Z,6.97
2019-03-25T08:34:59.500Z,6.00
2019-03-25T08:37:27.581Z,6.37
2019-03-25T08:39:56.004Z,6.40
2019-03-25T08:42:24.424Z,6.40
2019-03-25T08:44:52.825Z,5.47
2019-03-25T08:47:21.249Z,7.03
2019-03-25T08:49:49.672Z,6.45
2019-03-25T08:52:18.084Z,5.75
2019-03-25T08:54:46.492Z,6.42
2019-03-25T08:57:14.904Z,5.62
2019-03-25T08:59:43.305Z,6.70
2019-03-25T09:02:11.724Z,6.05
2019-03-25T09:04:39.814Z,5.95
2019-03-25T09:07:08.213Z,6.35
2019-03-25T09:09:36.696Z,6.47
2019-03-25T09:12:05.277Z,5.75
2019-03-25T09:14:33.676Z,5.87
2019-03-25T09:17:09.195Z,5.50
2019-03-25T09:19:37.724Z,5.58
2019-03-25T09:22:06.854Z,5.80
2019-03-25T09:24:35.308Z,5.03
2019-03-25T09:27:03.470Z,5.03
2019-03-25T09:29:31.892Z,4.87
2019-03-25T09:32:00.313Z,4.28
2019-03-25T09:34:28.742Z,5.50
2019-03-25T09:36:57.160Z,4.70
2019-03-25T09:39:25.561Z,5.55
2019-03-25T09:41:53.973Z,4.65
2019-03-25T09:44:22.382Z,5.37
2019-03-25T09:46:50.545Z,4.60
2019-03-25T09:49:18.950Z,4.03
2019-03-25T09:54:26.160Z,4.87
2019-03-25T09:56:54.254Z,4.35
2019-03-25T09:59:22.692Z,4.92
2019-03-25T10:01:51.097Z,4.20
2019-03-25T10:04:20.207Z,4.40
2019-03-25T10:06:48.495Z,3.87
2019-03-25T10:09:16.890Z,3.95
2019-03-25T10:11:45.309Z,3.95
2019-03-25T10:14:13.372Z,4.10
2019-03-25T10:16:41.461Z,3.25
2019-03-25T10:19:10.383Z,2.77
2019-03-25T10:21:39.105Z,3.55
2019-03-25T10:24:07.590Z,3.27
2019-03-25T10:26:36.064Z,3.30
2019-03-25T10:29:04.506Z,3.12
2019-03-25T10:31:33.081Z,3.47
2019-03-25T10:34:01.493Z,2.65
2019-03-25T10:36:31.622Z,2.98
2019-03-25T10:38:59.704Z,3.45
2019-03-25T10:41:28.161Z,2.15
2019-03-25T10:43:56.642Z,2.30
2019-03-25T10:46:24.735Z,2.42
2019-03-25T10:48:53.168Z,2.50
2019-03-25T10:51:21.587Z,1.80
2019-03-25T10:53:50.028Z,1.55
2019-03-25T10:56:18.426Z,1.60
2019-03-25T10:58:46.864Z,1.20
2019-03-25T11:01:15.360Z,1.20
2019-03-25T11:03:43.435Z,1.65
2019-03-25T11:06:11.833Z,1.70
2019-03-25T11:08:39.920Z,1.47
2019-03-25T11:11:08.334Z,1.15
2019-03-25T11:13:36.412Z,1.30
2019-03-25T11:16:04.976Z,1.20
2019-03-25T11:18:33.380Z,0.80
2019-03-25T11:21:01.812Z,0.90
2019-03-25T11:23:30.218Z,1.02
2019-03-25T11:25:58.327Z,1.55
2019-03-25T11:28:26.732Z,1.30
2019-03-25T11:30:57.172Z,1.02
2019-03-25T11:33:33.117Z,1.05
2019-03-25T11:36:02.765Z,1.10
2019-03-25T11:38:31.571Z,1.85
2019-03-25T11:40:59.708Z,0.95
2019-03-25T11:43:27.905Z,1.02
2019-03-25T11:45:55.972Z,1.00
2019-03-25T11:48:24.054Z,0.70
2019-03-25T11:50:52.200Z,0.70
2019-03-25T11:53:20.908Z,0.80
2019-03-25T11:55:49.315Z,0.80
2019-03-25T11:58:17.761Z,0.65
2019-03-25T12:00:46.188Z,0.60
2019-03-25T12:03:14.604Z,0.50
2019-03-25T12:05:43.024Z,1.05
2019-03-25T12:08:11.440Z,0.55
2019-03-25T12:10:39.863Z,0.60
2019-03-25T12:13:08.020Z,0.72
2019-03-25T12:15:36.424Z,0.70
2019-03-25T12:18:05.154Z,0.80
2019-03-25T12:20:33.559Z,0.85
2019-03-25T12:23:02.000Z,0.68
2019-03-25T12:25:30.417Z,0.75
2019-03-25T12:27:58.833Z,1.05
2019-03-25T12:30:46.568Z,0.70
2019-03-25T12:33:15.010Z,0.90
2019-03-25T12:35:43.415Z,0.78
2019-03-25T12:38:11.831Z,0.80
2019-03-25T12:40:40.406Z,0.70
2019-03-25T12:43:08.901Z,0.70
2019-03-25T12:45:37.557Z,0.80
2019-03-25T12:48:06.405Z,0.82
2019-03-25T12:50:34.908Z,0.90
2019-03-25T12:53:03.008Z,0.75
2019-03-25T12:55:31.427Z,0.65
2019-03-25T12:57:59.508Z,0.80
2019-03-25T13:00:36.220Z,0.78
2019-03-25T13:03:05.678Z,1.10
2019-03-25T13:05:34.074Z,1.00
2019-03-25T13:08:02.505Z,0.60
2019-03-25T13:10:31.028Z,1.02
2019-03-25T13:12:59.421Z,0.82
2019-03-25T13:15:27.856Z,0.78
2019-03-25T13:17:56.280Z,0.98
2019-03-25T13:20:24.744Z,0.80
2019-03-25T13:22:53.154Z,1.00
2019-03-25T13:25:21.558Z,0.90
2019-03-25T13:27:49.628Z,0.90
2019-03-25T13:30:18.572Z,0.90
2019-03-25T13:32:46.976Z,0.82
2019-03-25T13:35:15.402Z,0.98
2019-03-25T13:37:43.877Z,1.00
2019-03-25T13:40:13.472Z,0.90
2019-03-25T13:42:41.878Z,1.00
2019-03-25T13:45:10.412Z,1.00
2019-03-25T13:47:38.817Z,1.20
2019-03-25T13:50:07.792Z,1.27
2019-03-25T13:52:35.865Z,0.85
2019-03-25T13:55:06.053Z,1.25
2019-03-25T13:57:34.561Z,0.68
2019-03-25T14:00:03.514Z,1.00
2019-03-25T14:02:32.515Z,0.70
2019-03-25T14:05:00.920Z,1.40
2019-03-25T14:07:29.314Z,1.02
2019-03-25T14:09:57.721Z,1.00
2019-03-25T14:12:26.156Z,1.10
2019-03-25T14:14:54.609Z,1.20
2019-03-25T14:17:23.405Z,1.10
2019-03-25T14:19:51.710Z,0.80
2019-03-25T14:22:20.126Z,1.05
2019-03-25T14:24:48.542Z,0.60
2019-03-25T14:27:16.948Z,0.30
2019-03-25T14:29:45.340Z,0.70
2019-03-25T14:32:13.756Z,0.60
2019-03-25T14:34:44.946Z,0.90
2019-03-25T14:37:12.988Z,0.70
2019-03-25T14:39:41.064Z,0.68
2019-03-25T14:42:09.504Z,0.70
2019-03-25T14:44:37.918Z,0.90
2019-03-25T14:47:06.321Z,0.70
2019-03-25T14:49:34.758Z,0.70
2019-03-25T14:52:03.200Z,1.10
2019-03-25T14:54:31.621Z,1.07
2019-03-25T14:57:00.041Z,1.35
2019-03-25T14:59:28.440Z,1.42
2019-03-25T15:01:56.913Z,1.30
2019-03-25T15:06:58.128Z,0.90
2019-03-25T15:09:26.239Z,1.00
2019-03-25T15:11:54.682Z,1.22
2019-03-25T15:14:22.809Z,0.80
2019-03-25T15:16:51.260Z,0.70
2019-03-25T15:19:19.652Z,0.90
2019-03-25T15:21:48.068Z,0.50
2019-03-25T15:24:16.160Z,0.60
2019-03-25T15:26:44.568Z,0.90
2019-03-25T15:29:12.992Z,0.70
2019-03-25T15:31:41.111Z,0.88
2019-03-25T15:34:09.567Z,0.90
2019-03-25T15:36:37.984Z,1.07
2019-03-25T15:39:08.229Z,0.80
2019-03-25T15:41:36.307Z,0.90
2019-03-25T15:44:04.715Z,1.30
2019-03-25T15:46:33.125Z,0.90
2019-03-25T15:49:01.525Z,1.07
2019-03-25T15:51:29.966Z,0.80
2019-03-25T15:53:58.367Z,0.90
2019-03-25T15:56:26.648Z,1.15
2019-03-25T15:58:55.073Z,1.05
2019-03-25T16:01:23.479Z,1.00
2019-03-25T16:03:51.902Z,1.12
2019-03-25T16:06:22.330Z,1.02
2019-03-25T16:08:50.436Z,1.10
2019-03-25T16:11:18.837Z,1.02
2019-03-25T16:13:47.284Z,1.45
2019-03-25T16:16:15.391Z,1.30
2019-03-25T16:18:43.816Z,1.50
2019-03-25T16:21:12.311Z,1.05
2019-03-25T16:23:41.042Z,0.90
2019-03-25T16:26:10.810Z,0.90
2019-03-25T16:28:39.235Z,1.00
2019-03-25T16:31:07.387Z,1.32
2019-03-25T16:33:35.786Z,1.10
2019-03-25T16:36:04.365Z,1.30
2019-03-25T16:38:32.873Z,1.10
2019-03-25T16:44:04.452Z,0.82
2019-03-25T16:46:32.862Z,1.00
2019-03-25T16:49:01.266Z,1.57
2019-03-25T16:51:29.719Z,2.50
2019-03-25T16:54:00.508Z,1.40
2019-03-25T16:56:28.272Z,1.03
2019-03-25T16:58:56.700Z,0.83
2019-03-25T17:01:25.097Z,1.20
2019-03-25T17:03:53.513Z,0.97
2019-03-25T17:06:21.937Z,0.60
2019-03-25T17:08:50.348Z,0.70
2019-03-25T17:11:18.758Z,2.03
2019-03-25T17:13:47.167Z,1.27
2019-03-25T17:16:15.585Z,1.17
2019-03-25T17:18:44.000Z,1.00
2019-03-25T17:21:12.396Z,1.20
2019-03-25T17:23:41.733Z,1.30
2019-03-25T17:26:09.800Z,1.10
2019-03-25T17:28:38.207Z,1.00
2019-03-25T17:31:06.624Z,1.20
2019-03-25T17:33:34.741Z,0.90
2019-03-25T17:36:03.174Z,1.30
2019-03-25T17:38:31.597Z,1.43
2019-03-25T17:41:00.011Z,0.90
2019-03-25T17:43:28.420Z,1.03
2019-03-25T17:45:56.816Z,0.90
2019-03-25T17:48:25.324Z,0.70
2019-03-25T17:50:53.760Z,0.80
2019-03-25T17:53:22.192Z,0.90
2019-03-25T17:55:50.597Z,1.50
2019-03-25T17:58:19.001Z,1.70
2019-03-25T18:00:53.581Z,1.00
2019-03-25T18:03:22.073Z,1.07
2019-03-25T18:05:50.148Z,1.03
2019-03-25T18:08:18.577Z,0.90
2019-03-25T18:10:47.013Z,1.27
2019-03-25T18:13:22.238Z,1.00
2019-03-25T18:15:45.227Z,1.10
2019-03-25T18:18:13.663Z,1.00
2019-03-25T18:20:41.717Z,1.10
2019-03-25T18:23:10.132Z,1.10
2019-03-25T18:25:38.581Z,1.07
2019-03-25T18:28:06.984Z,0.90
2019-03-25T18:30:35.743Z,0.80
2019-03-25T18:33:14.121Z,0.87
2019-03-25T18:35:42.554Z,0.87
2019-03-25T18:38:10.961Z,0.77
2019-03-25T18:40:39.032Z,0.60
2019-03-25T18:43:07.145Z,0.60
2019-03-25T18:45:35.562Z,0.47
2019-03-25T18:48:04.061Z,0.60
2019-03-25T18:50:32.469Z,0.50
2019-03-25T18:53:00.873Z,0.50
2019-03-25T18:55:29.295Z,0.60
2019-03-25T18:58:10.301Z,0.67
2019-03-25T19:00:38.837Z,0.20
2019-03-25T19:03:07.886Z,0.30
2019-03-25T19:05:36.384Z,0.33
2019-03-25T19:08:04.559Z,0.23
2019-03-25T19:10:33.028Z,0.40
2019-03-25T19:13:01.444Z,0.70
2019-03-25T19:15:30.094Z,0.80
2019-03-25T19:17:58.288Z,0.90
2019-03-25T19:20:26.751Z,2.33
2019-03-25T19:22:54.808Z,1.17
2019-03-25T19:25:23.232Z,0.97
2019-03-25T19:27:51.683Z,0.70
2019-03-25T19:30:20.478Z,0.90
2019-03-25T19:32:48.921Z,0.60
2019-03-25T19:35:17.380Z,0.60
2019-03-25T19:37:45.924Z,0.90
2019-03-25T19:40:14.839Z,0.83
2019-03-25T19:42:43.269Z,0.60
2019-03-25T19:45:12.196Z,0.70
2019-03-25T19:47:40.595Z,0.60
2019-03-25T19:50:09.793Z,0.73
2019-03-25T19:52:38.285Z,0.60
2019-03-25T19:55:08.451Z,0.80
2019-03-25T19:58:01.228Z,0.77
2019-03-25T20:00:35.617Z,0.83
2019-03-25T20:03:04.248Z,0.80
2019-03-25T20:05:32.728Z,0.83
2019-03-25T20:08:01.334Z,0.67
2019-03-25T20:10:30.823Z,0.90
2019-03-25T20:13:00.050Z,0.60
2019-03-25T20:15:31.228Z,0.67
2019-03-25T20:17:58.658Z,0.50
2019-03-25T20:20:27.071Z,0.50
2019-03-25T20:22:55.337Z,0.70
2019-03-25T20:25:23.813Z,0.70
2019-03-25T20:27:52.215Z,0.60
2019-03-25T20:30:20.997Z,0.67
2019-03-25T20:32:49.444Z,0.60
2019-03-25T20:35:17.958Z,0.60
2019-03-25T20:37:46.441Z,0.50
2019-03-25T20:40:15.221Z,0.57
2019-03-25T20:42:43.694Z,0.57
2019-03-25T20:45:12.775Z,0.70
2019-03-25T20:47:41.351Z,0.80
2019-03-25T20:50:10.287Z,1.00
2019-03-25T20:52:38.843Z,0.80
2019-03-25T20:55:07.415Z,1.20
2019-03-25T20:57:35.566Z,0.83
2019-03-25T21:00:07.884Z,1.00
2019-03-25T21:02:44.925Z,1.33
2019-03-25T21:05:06.253Z,1.33
2019-03-25T21:07:54.034Z,1.27
2019-03-25T21:10:22.521Z,1.83
2019-03-25T21:12:50.925Z,2.20
2019-03-25T21:15:19.470Z,1.20
2019-03-25T21:17:47.945Z,1.50
2019-03-25T21:20:16.405Z,1.50
2019-03-25T21:22:44.512Z,1.97
2019-03-25T21:25:13.201Z,2.00
2019-03-25T21:27:41.780Z,1.20
2019-03-25T21:30:10.760Z,1.70
2019-03-25T21:32:39.219Z,1.93
2019-03-25T21:35:08.146Z,2.73
2019-03-25T21:37:36.676Z,2.03
2019-03-25T21:40:07.057Z,1.97
2019-03-25T21:42:35.734Z,2.00
2019-03-25T21:45:06.925Z,1.67
2019-03-25T21:47:35.391Z,1.77
2019-03-25T21:50:05.528Z,1.90
2019-03-25T21:52:34.003Z,1.90
2019-03-25T21:55:02.444Z,1.53
2019-03-25T21:57:31.072Z,2.23
2019-03-25T21:59:59.175Z,1.70
2019-03-25T22:02:27.590Z,1.47
2019-03-25T22:04:58.088Z,1.57
2019-03-25T22:07:26.498Z,1.70
2019-03-25T22:09:54.948Z,1.73
2019-03-25T22:12:23.366Z,1.80
2019-03-25T22:14:51.764Z,2.10
2019-03-25T22:17:19.841Z,2.27
2019-03-25T22:19:48.277Z,2.03
2019-03-25T22:22:16.665Z,1.90
2019-03-25T22:24:45.064Z,2.20
2019-03-25T22:27:13.484Z,1.70
2019-03-25T22:29:41.885Z,1.70
2019-03-25T22:32:10.312Z,1.60
2019-03-25T22:34:38.708Z,1.63
2019-03-25T22:37:07.193Z,1.90
2019-03-25T22:39:35.665Z,2.10
2019-03-25T22:42:04.083Z,1.70
2019-03-25T22:44:32.541Z,1.70
2019-03-25T22:49:40.772Z,1.73
2019-03-25T22:52:09.164Z,1.83
2019-03-25T22:54:37.576Z,1.53
2019-03-25T22:57:05.976Z,1.90
2019-03-25T22:59:34.368Z,2.40
2019-03-25T23:02:02.957Z,1.60
2019-03-25T23:04:31.345Z,1.80
2019-03-25T23:06:59.751Z,1.33
2019-03-25T23:09:28.165Z,1.70
2019-03-25T23:11:56.568Z,1.73
2019-03-25T23:14:24.997Z,1.90
2019-03-25T23:16:53.539Z,1.80
2019-03-25T23:19:21.608Z,2.10
2019-03-25T23:21:50.015Z,1.60
2019-03-25T23:24:18.462Z,2.20
2019-03-25T23:26:46.863Z,1.77
2019-03-25T23:29:15.336Z,1.93
2019-03-25T23:31:43.735Z,2.03
2019-03-25T23:34:12.150Z,1.63
2019-03-25T23:36:40.594Z,1.90
2019-03-25T23:39:08.973Z,1.97
2019-03-25T23:41:37.384Z,1.80
2019-03-25T23:44:05.964Z,2.17
2019-03-25T23:46:34.466Z,1.60
2019-03-25T23:49:02.861Z,1.53
2019-03-25T23:51:31.310Z,1.90
2019-03-25T23:54:15.186Z,1.87
2019-03-25T23:56:43.436Z,1.97
2019-03-25T23:59:11.909Z,1.93
